createdAt,value
2023-05-10T00:00:32.579Z,659.1539
2023-05-10T00:01:34.268Z,661.4615
2023-05-10T00:02:35.854Z,655.3077
2023-05-10T00:03:37.501Z,651.6923
2023-05-10T00:04:39.121Z,651.6923
2023-05-10T00:05:40.789Z,654.6923
2023-05-10T00:06:42.377Z,659.6923
2023-05-10T00:07:44.033Z,662.2308
2023-05-10T00:08:45.655Z,664.1539
2023-05-10T00:09:47.305Z,658.1539
2023-05-10T00:10:48.989Z,653.6154
2023-05-10T00:11:50.558Z,651.0000
2023-05-10T00:12:52.239Z,650.4615
2023-05-10T00:13:53.815Z,655.0769
2023-05-10T00:14:55.488Z,657.0000
2023-05-10T00:15:57.156Z,658.0000
2023-05-10T00:16:58.824Z,659.3846
2023-05-10T00:18:00.500Z,659.5385
2023-05-10T00:19:01.990Z,656.9231
2023-05-10T00:20:03.740Z,656.6154
2023-05-10T00:21:05.385Z,651.8461
2023-05-10T00:22:07.009Z,648.9231
2023-05-10T00:23:08.652Z,648.7692
2023-05-10T00:24:10.349Z,657.5385
2023-05-10T00:25:11.977Z,662.1539
2023-05-10T00:26:13.623Z,658.0000
2023-05-10T00:27:15.239Z,656.3077
2023-05-10T00:28:16.862Z,654.3077
2023-05-10T00:29:18.464Z,650.3077
2023-05-10T00:30:20.097Z,647.3846
2023-05-10T00:31:21.744Z,647.4615
2023-05-10T00:32:23.503Z,643.9231
2023-05-10T00:33:25.091Z,647.3077
2023-05-10T00:34:26.697Z,649.5385
2023-05-10T00:35:28.349Z,652.2308
2023-05-10T00:36:29.978Z,653.2308
2023-05-10T00:37:31.664Z,656.6154
2023-05-10T00:38:33.207Z,656.6154
2023-05-10T00:39:34.881Z,654.4615
2023-05-10T00:40:36.595Z,656.6154
2023-05-10T00:41:38.179Z,657.0769
2023-05-10T00:42:39.781Z,655.8461
2023-05-10T00:43:41.458Z,651.9231
2023-05-10T00:44:43.045Z,649.0000
2023-05-10T00:45:44.749Z,649.8461
2023-05-10T00:46:46.348Z,650.3077
2023-05-10T00:47:48.079Z,646.5385
2023-05-10T00:48:49.674Z,644.7692
2023-05-10T00:49:51.249Z,651.1539
2023-05-10T00:50:52.969Z,651.4615
2023-05-10T00:51:55.180Z,650.3846
2023-05-10T00:52:57.127Z,655.7692
2023-05-10T00:53:57.839Z,654.6923
2023-05-10T00:54:59.543Z,654.6923
2023-05-10T00:56:01.161Z,656.0000
2023-05-10T00:57:02.831Z,656.3077
2023-05-10T00:58:04.388Z,646.3846
2023-05-10T00:59:06.018Z,642.5385
2023-05-10T01:00:07.745Z,644.9231
2023-05-10T01:01:09.313Z,648.1539
2023-05-10T01:02:12.752Z,653.9231
2023-05-10T01:03:12.736Z,648.0000
2023-05-10T01:04:14.241Z,646.0000
2023-05-10T01:05:16.048Z,649.0769
2023-05-10T01:06:17.460Z,655.5385
2023-05-10T01:07:19.224Z,652.1539
2023-05-10T01:08:20.755Z,644.6154
2023-05-10T01:09:22.435Z,655.1539
2023-05-10T01:10:24.072Z,658.0769
2023-05-10T01:11:25.702Z,660.9231
2023-05-10T01:12:27.372Z,662.3846
2023-05-10T01:13:29.104Z,660.6154
2023-05-10T01:14:30.622Z,650.5385
2023-05-10T01:15:32.309Z,650.3077
2023-05-10T01:16:33.999Z,650.0769
2023-05-10T01:17:35.803Z,651.6923
2023-05-10T01:18:37.138Z,650.3846
2023-05-10T01:19:38.852Z,651.3077
2023-05-10T01:20:40.469Z,652.1539
2023-05-10T01:21:42.144Z,652.7692
2023-05-10T01:22:43.793Z,660.0000
2023-05-10T01:23:45.406Z,658.2308
2023-05-10T01:24:47.037Z,648.3846
2023-05-10T01:25:48.680Z,647.3077
2023-05-10T01:26:50.317Z,647.9231
2023-05-10T01:27:52.212Z,651.0769
2023-05-10T01:28:53.646Z,649.8461
2023-05-10T01:30:05.907Z,657.0769
2023-05-10T01:30:56.891Z,662.2308
2023-05-10T01:31:58.541Z,659.2308
2023-05-10T01:33:00.250Z,657.6154
2023-05-10T01:34:01.905Z,655.0000
2023-05-10T01:35:03.514Z,657.7692
2023-05-10T01:36:05.247Z,655.7692
2023-05-10T01:37:06.828Z,656.0000
2023-05-10T01:38:08.439Z,647.3846
2023-05-10T01:39:10.057Z,643.6154
2023-05-10T01:40:11.653Z,652.3077
2023-05-10T01:41:13.339Z,651.2308
2023-05-10T01:42:14.948Z,649.7692
2023-05-10T01:43:16.660Z,644.7692
2023-05-10T01:44:18.274Z,647.0769
2023-05-10T01:45:19.905Z,647.1539
2023-05-10T01:46:21.580Z,655.0000
2023-05-10T01:47:23.194Z,655.0000
2023-05-10T01:48:24.871Z,656.3846
2023-05-10T01:49:26.556Z,651.6154
2023-05-10T01:50:28.100Z,650.3077
2023-05-10T01:51:29.750Z,651.3846
2023-05-10T01:52:31.445Z,650.6154
2023-05-10T01:53:33.244Z,656.7692
2023-05-10T01:54:34.653Z,653.0769
2023-05-10T01:55:36.340Z,652.3077
2023-05-10T01:56:37.884Z,655.5385
2023-05-10T01:57:39.524Z,654.1539
2023-05-10T01:58:41.191Z,658.6154
2023-05-10T01:59:42.816Z,658.0000
2023-05-10T02:00:44.435Z,663.3846
2023-05-10T02:01:46.128Z,667.0000
2023-05-10T02:02:47.777Z,664.1539
2023-05-10T02:03:49.448Z,657.8461
2023-05-10T02:04:52.197Z,659.3846
2023-05-10T02:05:53.708Z,660.8461
2023-05-10T02:06:55.328Z,663.3077
2023-05-10T02:07:56.096Z,662.4615
2023-05-10T02:08:58.344Z,663.1539
2023-05-10T02:09:59.484Z,666.9231
2023-05-10T02:11:01.990Z,670.0000
2023-05-10T02:12:03.704Z,666.6923
2023-05-10T02:13:04.261Z,669.3846
2023-05-10T02:14:06.230Z,659.9231
2023-05-10T02:15:07.631Z,647.6923
2023-05-10T02:16:09.261Z,651.1539
2023-05-10T02:17:10.806Z,655.6154
2023-05-10T02:18:12.507Z,657.0769
2023-05-10T02:19:14.141Z,660.0769
2023-05-10T02:20:16.460Z,662.7692
2023-05-10T02:21:17.419Z,662.8461
2023-05-10T02:22:19.081Z,663.3846
2023-05-10T02:23:20.679Z,660.6154
2023-05-10T02:24:22.360Z,655.7692
2023-05-10T02:25:24.043Z,658.8461
2023-05-10T02:26:25.626Z,662.5385
2023-05-10T02:27:27.257Z,660.0000
2023-05-10T02:28:28.945Z,660.1539
2023-05-10T02:29:30.704Z,663.0769
2023-05-10T02:30:32.268Z,661.9231
2023-05-10T02:31:34.015Z,658.6923
2023-05-10T02:32:35.629Z,657.1539
2023-05-10T02:33:37.153Z,654.6154
2023-05-10T02:34:38.907Z,653.1539
2023-05-10T02:35:40.465Z,654.6923
2023-05-10T02:36:42.168Z,658.0000
2023-05-10T02:37:43.806Z,660.0769
2023-05-10T02:38:45.365Z,659.6154
2023-05-10T02:39:47.116Z,655.7692
2023-05-10T02:40:48.702Z,658.4615
2023-05-10T02:41:50.285Z,656.3077
2023-05-10T02:42:51.957Z,656.3846
2023-05-10T02:43:53.632Z,652.3077
2023-05-10T02:44:55.226Z,649.6154
2023-05-10T02:45:57.274Z,657.4615
2023-05-10T02:46:58.478Z,658.9231
2023-05-10T02:48:00.246Z,650.3846
2023-05-10T02:49:01.795Z,648.0000
2023-05-10T02:50:03.426Z,660.2308
2023-05-10T02:51:05.088Z,666.0000
2023-05-10T02:52:06.748Z,665.3846
2023-05-10T02:53:08.333Z,664.9231
2023-05-10T02:54:10.080Z,665.4615
2023-05-10T02:55:11.645Z,663.9231
2023-05-10T02:56:13.355Z,663.2308
2023-05-10T02:57:15.009Z,662.3077
2023-05-10T02:58:16.609Z,663.1539
2023-05-10T02:59:18.213Z,662.6154
2023-05-10T03:00:19.929Z,663.8461
2023-05-10T03:01:21.517Z,664.5385
2023-05-10T03:02:23.190Z,669.3077
2023-05-10T03:03:24.775Z,678.2308
2023-05-10T03:04:26.472Z,671.3077
2023-05-10T03:05:28.100Z,668.4615
2023-05-10T03:06:29.752Z,664.4615
2023-05-10T03:07:31.356Z,668.4615
2023-05-10T03:08:33.041Z,668.5385
2023-05-10T03:09:34.703Z,672.0769
2023-05-10T03:10:36.351Z,674.2308
2023-05-10T03:11:38.090Z,672.1539
2023-05-10T03:12:39.582Z,666.6923
2023-05-10T03:13:41.282Z,669.3077
2023-05-10T03:14:42.858Z,673.6923
2023-05-10T03:15:44.608Z,669.3846
2023-05-10T03:16:46.337Z,665.6154
2023-05-10T03:17:47.795Z,667.1539
2023-05-10T03:18:49.453Z,670.6154
2023-05-10T03:19:51.143Z,670.0000
2023-05-10T03:20:52.800Z,667.3077
2023-05-10T03:21:54.565Z,666.7692
2023-05-10T03:22:56.025Z,662.4615
2023-05-10T03:23:57.689Z,660.0000
2023-05-10T03:24:59.342Z,662.0000
2023-05-10T03:26:01.024Z,664.3846
2023-05-10T03:27:02.629Z,661.1539
2023-05-10T03:28:04.249Z,661.6154
2023-05-10T03:29:05.897Z,662.6923
2023-05-10T03:30:07.488Z,660.9231
2023-05-10T03:31:09.204Z,661.5385
2023-05-10T03:32:10.817Z,664.9231
2023-05-10T03:33:12.422Z,667.3077
2023-05-10T03:34:14.108Z,664.3846
2023-05-10T03:35:15.823Z,667.7692
2023-05-10T03:36:17.487Z,662.9231
2023-05-10T03:37:19.039Z,663.6154
2023-05-10T03:38:20.725Z,661.7692
2023-05-10T03:39:22.378Z,662.9231
2023-05-10T03:40:23.937Z,666.3846
2023-05-10T03:41:25.572Z,667.5385
2023-05-10T03:42:27.331Z,669.0000
2023-05-10T03:43:28.848Z,670.5385
2023-05-10T03:44:30.513Z,671.8461
2023-05-10T03:45:32.218Z,666.7692
2023-05-10T03:46:33.834Z,665.5385
2023-05-10T03:47:35.479Z,667.4615
2023-05-10T03:48:37.096Z,670.0769
2023-05-10T03:49:38.709Z,668.5385
2023-05-10T03:50:40.389Z,667.5385
2023-05-10T03:51:42.110Z,672.2308
2023-05-10T03:52:43.684Z,671.9231
2023-05-10T03:53:45.277Z,674.8461
2023-05-10T03:54:46.932Z,674.6923
2023-05-10T03:55:48.597Z,672.6154
2023-05-10T03:56:50.256Z,662.8461
2023-05-10T03:57:51.918Z,666.1539
2023-05-10T03:58:53.476Z,668.3846
2023-05-10T03:59:55.049Z,669.4615
2023-05-10T04:00:56.700Z,669.6154
2023-05-10T04:01:58.368Z,667.3077
2023-05-10T04:03:00.121Z,663.0769
2023-05-10T04:04:01.624Z,666.5385
2023-05-10T04:05:03.285Z,671.6923
2023-05-10T04:06:04.939Z,679.3846
2023-05-10T04:07:06.531Z,681.9231
2023-05-10T04:08:08.212Z,677.5385
2023-05-10T04:09:09.819Z,676.6154
2023-05-10T04:10:11.499Z,674.9231
2023-05-10T04:11:15.724Z,673.1539
2023-05-10T04:12:14.747Z,667.8461
2023-05-10T04:13:16.552Z,664.2308
2023-05-10T04:14:18.043Z,668.0769
2023-05-10T04:15:19.671Z,677.6923
2023-05-10T04:16:21.323Z,673.3077
2023-05-10T04:17:23.075Z,674.6154
2023-05-10T04:18:24.656Z,676.5385
2023-05-10T04:19:27.273Z,677.3077
2023-05-10T04:20:27.932Z,678.8461
2023-05-10T04:21:29.568Z,676.1539
2023-05-10T04:22:31.175Z,673.0769
2023-05-10T04:23:32.930Z,670.0769
2023-05-10T04:24:34.580Z,659.2308
2023-05-10T04:25:37.256Z,663.2308
2023-05-10T04:26:37.830Z,669.0769
2023-05-10T04:27:39.429Z,674.8461
2023-05-10T04:28:41.227Z,669.3846
2023-05-10T04:29:42.794Z,670.5385
2023-05-10T04:30:44.420Z,669.7692
2023-05-10T04:31:46.066Z,668.8461
2023-05-10T04:32:48.721Z,671.1539
2023-05-10T04:33:49.347Z,672.1539
2023-05-10T04:34:50.972Z,675.0769
2023-05-10T04:35:52.597Z,677.0769
2023-05-10T04:36:54.295Z,672.0000
2023-05-10T04:37:55.833Z,674.6154
2023-05-10T04:38:57.606Z,676.9231
2023-05-10T04:39:59.160Z,675.0000
2023-05-10T04:41:00.797Z,671.6923
2023-05-10T04:42:02.533Z,673.3077
2023-05-10T04:43:04.209Z,670.3846
2023-05-10T04:44:06.003Z,669.7692
2023-05-10T04:45:07.520Z,669.3846
2023-05-10T04:46:09.168Z,669.7692
2023-05-10T04:47:12.676Z,667.5385
2023-05-10T04:48:12.474Z,675.4615
2023-05-10T04:49:14.101Z,676.1539
2023-05-10T04:50:15.969Z,673.4615
2023-05-10T04:51:17.473Z,672.8461
2023-05-10T04:52:18.959Z,672.2308
2023-05-10T04:53:20.684Z,672.7692
2023-05-10T04:54:23.040Z,675.5385
2023-05-10T04:55:23.989Z,672.1539
2023-05-10T04:56:25.574Z,670.8461
2023-05-10T04:57:27.234Z,676.6923
2023-05-10T04:58:28.830Z,694.6154
2023-05-10T04:59:30.938Z,696.6154
2023-05-10T05:00:32.138Z,694.0000
2023-05-10T05:01:33.955Z,692.3846
2023-05-10T05:02:35.483Z,689.3077
2023-05-10T05:03:38.076Z,685.6154
2023-05-10T05:04:38.632Z,685.0769
2023-05-10T05:05:40.349Z,684.8461
2023-05-10T05:06:42.912Z,680.9231
2023-05-10T05:07:43.568Z,683.3077
2023-05-10T05:08:45.280Z,679.2308
2023-05-10T05:09:46.832Z,677.4615
2023-05-10T05:10:48.614Z,677.1539
2023-05-10T05:11:50.173Z,678.8461
2023-05-10T05:12:51.925Z,680.3077
2023-05-10T05:13:53.518Z,683.0769
2023-05-10T05:14:55.081Z,684.6154
2023-05-10T05:15:57.009Z,683.0769
2023-05-10T05:16:58.422Z,679.3846
2023-05-10T05:18:00.110Z,678.6923
2023-05-10T05:19:01.686Z,683.5385
2023-05-10T05:20:03.336Z,682.1539
2023-05-10T05:21:04.954Z,681.5385
2023-05-10T05:22:06.641Z,675.3846
2023-05-10T05:23:08.257Z,685.0000
2023-05-10T05:24:09.906Z,688.0000
2023-05-10T05:25:11.532Z,688.2308
2023-05-10T05:26:13.214Z,684.8461
2023-05-10T05:27:14.849Z,680.6923
2023-05-10T05:28:16.402Z,683.0769
2023-05-10T05:29:18.055Z,684.3846
2023-05-10T05:30:19.804Z,680.3077
2023-05-10T05:31:22.413Z,678.1539
2023-05-10T05:32:22.959Z,684.6154
2023-05-10T05:33:24.611Z,684.2308
2023-05-10T05:34:26.475Z,687.3077
2023-05-10T05:35:28.927Z,682.0000
2023-05-10T05:36:29.543Z,683.3846
2023-05-10T05:37:31.482Z,685.0769
2023-05-10T05:38:33.817Z,677.0000
2023-05-10T05:39:35.331Z,678.3077
2023-05-10T05:40:36.164Z,679.9231
2023-05-10T05:41:38.761Z,679.6923
2023-05-10T05:42:40.491Z,680.6154
2023-05-10T05:43:40.957Z,684.7692
2023-05-10T05:44:42.941Z,686.3846
2023-05-10T05:45:45.381Z,683.9231
2023-05-10T05:46:45.972Z,679.1539
2023-05-10T05:47:48.585Z,676.0000
2023-05-10T05:48:49.297Z,675.6154
2023-05-10T05:49:50.925Z,680.1539
2023-05-10T05:50:52.527Z,679.7692
2023-05-10T05:51:54.462Z,679.8461
2023-05-10T05:52:56.793Z,676.3077
2023-05-10T05:53:57.510Z,679.0769
2023-05-10T05:54:59.091Z,679.0000
2023-05-10T05:56:00.882Z,681.3846
2023-05-10T05:57:02.460Z,679.0000
2023-05-10T05:58:04.062Z,675.3077
2023-05-10T05:59:05.690Z,679.2308
2023-05-10T06:00:07.409Z,679.6154
2023-05-10T06:01:08.972Z,680.4615
2023-05-10T06:02:10.746Z,684.1539
2023-05-10T06:03:13.360Z,682.2308
2023-05-10T06:04:13.974Z,677.0769
2023-05-10T06:05:16.612Z,676.6154
2023-05-10T06:06:17.281Z,676.5385
2023-05-10T06:07:19.857Z,675.1539
2023-05-10T06:08:20.529Z,675.0000
2023-05-10T06:09:22.189Z,670.5385
2023-05-10T06:10:23.802Z,673.3846
2023-05-10T06:11:26.409Z,666.4615
2023-05-10T06:12:27.358Z,670.3077
2023-05-10T06:13:29.936Z,669.3846
2023-05-10T06:14:30.298Z,669.6154
2023-05-10T06:15:32.048Z,667.0000
2023-05-10T06:16:34.713Z,671.5385
2023-05-10T06:17:35.271Z,677.3077
2023-05-10T06:18:36.939Z,676.9231
2023-05-10T06:19:38.526Z,676.3077
2023-05-10T06:20:40.241Z,675.6154
2023-05-10T06:21:41.862Z,674.3077
2023-05-10T06:22:43.620Z,668.0000
2023-05-10T06:23:45.133Z,670.0769
2023-05-10T06:24:46.756Z,672.3077
2023-05-10T06:25:48.451Z,672.6923
2023-05-10T06:26:50.136Z,673.1539
2023-05-10T06:27:53.651Z,679.0000
2023-05-10T06:28:53.403Z,671.8461
2023-05-10T06:30:02.177Z,671.6154
2023-05-10T06:30:56.631Z,675.6154
2023-05-10T06:31:58.458Z,676.4615
2023-05-10T06:32:59.998Z,679.0769
2023-05-10T06:34:01.542Z,675.6923
2023-05-10T06:35:03.200Z,682.1539
2023-05-10T06:36:04.887Z,675.9231
2023-05-10T06:37:06.490Z,674.4615
2023-05-10T06:38:08.260Z,677.6154
2023-05-10T06:39:09.769Z,682.3077
2023-05-10T06:40:11.497Z,679.8461
2023-05-10T06:41:13.114Z,676.4615
2023-05-10T06:42:14.828Z,675.1539
2023-05-10T06:43:17.354Z,679.9231
2023-05-10T06:44:18.059Z,672.3077
2023-05-10T06:45:19.808Z,670.0769
2023-05-10T06:46:21.284Z,669.5385
2023-05-10T06:47:22.995Z,669.9231
2023-05-10T06:48:24.637Z,669.6154
2023-05-10T06:49:26.226Z,670.6923
2023-05-10T06:50:27.790Z,662.9231
2023-05-10T06:51:29.457Z,671.0000
2023-05-10T06:52:31.107Z,673.7692
2023-05-10T06:53:32.770Z,674.1539
2023-05-10T06:54:34.385Z,673.2308
2023-05-10T06:55:36.084Z,675.7692
2023-05-10T06:56:37.664Z,674.9231
2023-05-10T06:57:39.442Z,676.9231
2023-05-10T06:58:42.003Z,675.3846
2023-05-10T06:59:42.665Z,672.3077
2023-05-10T07:00:44.330Z,676.4615
2023-05-10T07:01:45.945Z,679.0000
2023-05-10T07:02:47.569Z,675.3077
2023-05-10T07:03:49.398Z,673.5385
2023-05-10T07:04:50.901Z,673.9231
2023-05-10T07:05:52.455Z,669.2308
2023-05-10T07:06:54.087Z,665.9231
2023-05-10T07:07:55.761Z,664.5385
2023-05-10T07:08:58.385Z,664.6154
2023-05-10T07:09:59.058Z,666.7692
2023-05-10T07:11:00.656Z,666.0769
2023-05-10T07:12:02.350Z,668.2308
2023-05-10T07:13:04.009Z,665.9231
2023-05-10T07:14:05.657Z,669.8461
2023-05-10T07:15:07.286Z,663.7692
2023-05-10T07:16:08.963Z,666.0769
2023-05-10T07:17:10.586Z,667.8461
2023-05-10T07:18:12.210Z,665.5385
2023-05-10T07:19:13.788Z,669.1539
2023-05-10T07:20:15.564Z,671.6923
2023-05-10T07:21:17.106Z,673.0000
2023-05-10T07:22:18.746Z,674.2308
2023-05-10T07:23:20.402Z,675.1539
2023-05-10T07:24:22.396Z,677.2308
2023-05-10T07:25:23.647Z,677.4615
2023-05-10T07:26:25.882Z,676.1539
2023-05-10T07:27:27.796Z,674.6154
2023-05-10T07:28:28.691Z,681.4615
2023-05-10T07:29:30.303Z,685.3846
2023-05-10T07:30:32.021Z,688.6154
2023-05-10T07:31:33.495Z,691.7692
2023-05-10T07:32:35.300Z,689.8461
2023-05-10T07:33:36.809Z,695.8461
2023-05-10T07:34:38.496Z,699.5385
2023-05-10T07:35:40.111Z,707.4615
2023-05-10T07:36:41.691Z,701.1539
2023-05-10T07:37:43.281Z,704.9231
2023-05-10T07:38:45.003Z,705.6154
2023-05-10T07:39:48.420Z,706.0000
2023-05-10T07:40:48.823Z,708.2308
2023-05-10T07:41:49.917Z,707.9231
2023-05-10T07:42:51.517Z,714.7692
2023-05-10T07:43:53.731Z,718.6923
2023-05-10T07:44:54.885Z,723.6154
2023-05-10T07:45:56.544Z,729.0000
2023-05-10T07:46:58.769Z,732.4615
2023-05-10T07:47:59.804Z,738.5385
2023-05-10T07:49:01.405Z,743.7692
2023-05-10T07:50:03.074Z,741.4615
2023-05-10T07:51:04.792Z,742.8461
2023-05-10T07:52:06.405Z,751.6154
2023-05-10T07:53:08.002Z,751.6154
2023-05-10T07:54:09.641Z,757.5385
2023-05-10T07:55:11.338Z,763.3077
2023-05-10T07:56:12.953Z,769.5385
2023-05-10T07:57:14.596Z,771.3846
2023-05-10T07:58:16.236Z,764.9231
2023-05-10T07:59:17.932Z,766.4615
2023-05-10T08:00:19.828Z,770.0000
2023-05-10T08:01:21.619Z,769.9231
2023-05-10T08:02:22.911Z,776.9231
2023-05-10T08:03:24.647Z,779.3846
2023-05-10T08:04:26.269Z,772.1539
2023-05-10T08:05:27.936Z,766.7692
2023-05-10T08:06:29.568Z,761.8461
2023-05-10T08:07:31.233Z,763.6923
2023-05-10T08:08:33.775Z,763.9231
2023-05-10T08:09:34.503Z,758.6154
2023-05-10T08:10:36.194Z,750.6923
2023-05-10T08:11:37.886Z,752.6923
2023-05-10T08:12:39.414Z,757.6154
2023-05-10T08:13:41.059Z,757.3077
2023-05-10T08:14:42.647Z,752.4615
2023-05-10T08:15:44.453Z,745.1539
2023-05-10T08:16:45.986Z,739.4615
2023-05-10T08:17:48.680Z,742.4615
2023-05-10T08:18:49.204Z,743.2308
2023-05-10T08:19:50.892Z,743.1539
2023-05-10T08:20:53.536Z,734.5385
2023-05-10T08:21:54.194Z,733.8461
2023-05-10T08:22:55.804Z,728.6154
2023-05-10T08:23:57.556Z,731.1539
2023-05-10T08:24:59.073Z,739.7692
2023-05-10T08:26:01.017Z,733.5385
2023-05-10T08:27:02.498Z,734.3077
2023-05-10T08:28:04.147Z,730.8461
2023-05-10T08:29:05.730Z,727.0769
2023-05-10T08:30:07.424Z,725.2308
2023-05-10T08:31:09.147Z,719.1539
2023-05-10T08:32:10.720Z,720.0000
2023-05-10T08:33:12.426Z,716.6154
2023-05-10T08:34:14.039Z,717.4615
2023-05-10T08:35:15.852Z,712.3846
2023-05-10T08:36:17.362Z,710.2308
2023-05-10T08:37:19.012Z,708.6923
2023-05-10T08:38:21.533Z,714.8461
2023-05-10T08:39:29.847Z,715.3077
2023-05-10T08:40:23.878Z,711.6923
2023-05-10T08:41:25.511Z,703.1539
2023-05-10T08:42:27.187Z,704.2308
2023-05-10T08:43:29.765Z,705.0000
2023-05-10T08:44:30.431Z,708.5385
2023-05-10T08:45:32.087Z,708.0769
2023-05-10T08:46:33.770Z,701.5385
2023-05-10T08:47:35.365Z,698.0769
2023-05-10T08:48:37.025Z,698.6154
2023-05-10T08:49:38.654Z,698.3077
2023-05-10T08:50:40.592Z,697.8461
2023-05-10T08:51:43.823Z,698.8461
2023-05-10T08:52:43.565Z,699.4615
2023-05-10T08:53:45.492Z,697.3077
2023-05-10T08:54:47.695Z,699.0769
2023-05-10T08:55:48.386Z,699.4615
2023-05-10T08:56:50.192Z,699.2308
2023-05-10T08:57:51.642Z,697.6154
2023-05-10T08:58:53.444Z,697.8461
2023-05-10T08:59:55.002Z,699.3077
2023-05-10T09:00:56.801Z,693.3077
2023-05-10T09:01:58.374Z,695.8461
2023-05-10T09:03:00.038Z,697.8461
2023-05-10T09:04:02.045Z,693.6154
2023-05-10T09:05:03.413Z,694.6923
2023-05-10T09:06:05.063Z,692.8461
2023-05-10T09:07:06.623Z,693.9231
2023-05-10T09:08:08.324Z,696.8461
2023-05-10T09:09:09.852Z,697.4615
2023-05-10T09:10:11.541Z,700.2308
2023-05-10T09:11:13.192Z,699.0769
2023-05-10T09:12:14.810Z,696.9231
2023-05-10T09:13:16.527Z,695.0769
2023-05-10T09:14:18.122Z,692.8461
2023-05-10T09:15:19.831Z,692.0769
2023-05-10T09:16:22.460Z,691.4615
2023-05-10T09:17:23.152Z,689.7692
2023-05-10T09:18:26.018Z,685.2308
2023-05-10T09:19:27.400Z,680.1539
2023-05-10T09:20:27.884Z,679.1539
2023-05-10T09:21:29.505Z,678.8461
2023-05-10T09:22:31.282Z,677.7692
2023-05-10T09:23:32.764Z,680.6154
2023-05-10T09:24:35.416Z,680.7692
2023-05-10T09:25:36.094Z,673.1539
2023-05-10T09:26:37.747Z,675.6923
2023-05-10T09:27:39.345Z,681.1539
2023-05-10T09:28:41.088Z,680.6154
2023-05-10T09:29:42.624Z,675.0769
2023-05-10T09:30:44.340Z,676.0769
2023-05-10T09:31:45.928Z,676.0769
2023-05-10T09:32:47.643Z,679.0769
2023-05-10T09:33:49.214Z,678.6923
2023-05-10T09:34:50.847Z,680.8461
2023-05-10T09:35:52.586Z,678.5385
2023-05-10T09:36:54.121Z,679.4615
2023-05-10T09:37:55.861Z,674.5385
2023-05-10T09:38:57.535Z,671.0769
2023-05-10T09:39:59.076Z,679.9231
2023-05-10T09:41:00.817Z,677.8461
2023-05-10T09:42:02.362Z,674.5385
2023-05-10T09:43:04.037Z,678.0769
2023-05-10T09:44:05.686Z,677.9231
2023-05-10T09:45:07.320Z,676.6923
2023-05-10T09:46:09.003Z,679.0000
2023-05-10T09:47:10.564Z,680.3846
2023-05-10T09:48:12.462Z,673.8461
2023-05-10T09:49:13.853Z,671.0769
2023-05-10T09:50:15.563Z,668.5385
2023-05-10T09:51:17.235Z,665.9231
2023-05-10T09:52:18.834Z,666.4615
2023-05-10T09:53:20.468Z,668.7692
2023-05-10T09:54:22.110Z,668.2308
2023-05-10T09:55:23.765Z,671.2308
2023-05-10T09:56:25.431Z,671.3077
2023-05-10T09:57:27.038Z,664.0000
2023-05-10T09:58:28.733Z,669.0000
2023-05-10T09:59:30.325Z,669.2308
2023-05-10T10:00:31.975Z,667.7692
2023-05-10T10:01:33.705Z,665.1539
2023-05-10T10:02:35.283Z,667.4615
2023-05-10T10:03:36.936Z,669.3077
2023-05-10T10:04:38.545Z,671.8461
2023-05-10T10:05:40.274Z,666.4615
2023-05-10T10:06:41.831Z,661.3846
2023-05-10T10:07:43.476Z,662.6154
2023-05-10T10:08:45.192Z,668.1539
2023-05-10T10:09:46.827Z,667.0769
2023-05-10T10:10:48.437Z,667.2308
2023-05-10T10:11:50.064Z,662.5385
2023-05-10T10:12:51.666Z,661.3077
2023-05-10T10:13:53.362Z,659.3846
2023-05-10T10:14:54.971Z,660.7692
2023-05-10T10:15:56.627Z,663.9231
2023-05-10T10:17:06.787Z,667.6923
2023-05-10T10:18:00.044Z,667.0000
2023-05-10T10:19:01.700Z,659.9231
2023-05-10T10:20:03.266Z,665.0000
2023-05-10T10:21:04.804Z,666.6154
2023-05-10T10:22:06.583Z,670.9231
2023-05-10T10:23:08.134Z,671.2308
2023-05-10T10:24:09.857Z,669.1539
2023-05-10T10:25:11.381Z,667.0000
2023-05-10T10:26:13.106Z,660.6154
2023-05-10T10:27:14.692Z,660.5385
2023-05-10T10:28:16.271Z,662.1539
2023-05-10T10:29:17.991Z,658.0000
2023-05-10T10:30:19.731Z,664.6923
2023-05-10T10:31:21.323Z,665.0000
2023-05-10T10:32:23.022Z,658.0000
2023-05-10T10:33:28.739Z,653.0000
2023-05-10T10:34:26.234Z,652.2308
2023-05-10T10:35:27.890Z,653.8461
2023-05-10T10:36:29.554Z,655.2308
2023-05-10T10:37:31.096Z,657.4615
2023-05-10T10:38:32.773Z,657.3077
2023-05-10T10:39:34.467Z,653.3077
2023-05-10T10:40:36.083Z,656.6923
2023-05-10T10:41:37.717Z,656.7692
2023-05-10T10:42:39.358Z,655.7692
2023-05-10T10:43:40.997Z,654.2308
2023-05-10T10:44:42.614Z,653.0769
2023-05-10T10:45:44.238Z,652.3846
2023-05-10T10:46:45.946Z,660.5385
2023-05-10T10:47:47.642Z,660.2308
2023-05-10T10:48:49.139Z,660.3846
2023-05-10T10:49:51.547Z,658.8461
2023-05-10T10:50:52.611Z,654.1539
2023-05-10T10:51:54.079Z,656.8461
2023-05-10T10:52:55.830Z,659.2308
2023-05-10T10:53:57.402Z,654.1539
2023-05-10T10:54:59.175Z,652.1539
2023-05-10T10:56:00.744Z,651.3077
2023-05-10T10:57:02.348Z,647.5385
2023-05-10T10:58:03.980Z,656.8461
2023-05-10T10:59:05.653Z,655.8461
2023-05-10T11:00:07.295Z,661.5385
2023-05-10T11:01:08.939Z,652.7692
2023-05-10T11:02:10.587Z,650.1539
2023-05-10T11:03:12.246Z,649.7692
2023-05-10T11:04:14.052Z,653.5385
2023-05-10T11:05:15.602Z,656.2308
2023-05-10T11:06:17.152Z,656.2308
2023-05-10T11:07:18.820Z,654.0769
2023-05-10T11:08:20.400Z,651.6923
2023-05-10T11:09:21.982Z,650.3846
2023-05-10T11:10:24.038Z,654.1539
2023-05-10T11:11:25.286Z,650.6154
2023-05-10T11:12:27.105Z,648.8461
2023-05-10T11:13:28.567Z,649.6154
2023-05-10T11:14:30.363Z,651.2308
2023-05-10T11:15:31.988Z,648.6923
2023-05-10T11:16:33.553Z,646.3077
2023-05-10T11:17:35.231Z,646.2308
2023-05-10T11:18:36.916Z,648.2308
2023-05-10T11:19:38.448Z,646.9231
2023-05-10T11:20:40.203Z,640.1539
2023-05-10T11:21:41.718Z,638.2308
2023-05-10T11:22:43.471Z,642.6923
2023-05-10T11:23:45.066Z,647.7692
2023-05-10T11:24:47.860Z,644.3846
2023-05-10T11:25:48.382Z,638.2308
2023-05-10T11:26:50.000Z,638.3077
2023-05-10T11:27:51.603Z,641.6923
2023-05-10T11:28:53.280Z,646.4615
2023-05-10T11:29:54.881Z,643.3846
2023-05-10T11:30:56.625Z,639.9231
2023-05-10T11:31:58.183Z,638.6154
2023-05-10T11:32:59.816Z,639.0000
2023-05-10T11:34:01.464Z,641.5385
2023-05-10T11:35:03.090Z,646.4615
2023-05-10T11:36:04.810Z,651.5385
2023-05-10T11:37:06.354Z,649.9231
2023-05-10T11:38:08.031Z,649.9231
2023-05-10T11:39:09.667Z,646.9231
2023-05-10T11:40:11.386Z,645.8461
2023-05-10T11:41:12.966Z,645.1539
2023-05-10T11:42:15.362Z,647.1539
2023-05-10T11:43:16.209Z,648.0000
2023-05-10T11:44:17.923Z,645.4615
2023-05-10T11:45:19.549Z,644.0000
2023-05-10T11:46:21.307Z,647.5385
2023-05-10T11:47:22.918Z,654.8461
2023-05-10T11:48:24.490Z,654.1539
2023-05-10T11:49:26.159Z,648.4615
2023-05-10T11:50:27.724Z,643.7692
2023-05-10T11:51:29.489Z,644.3846
2023-05-10T11:52:31.086Z,646.3077
2023-05-10T11:53:32.677Z,650.3077
2023-05-10T11:54:34.433Z,652.7692
2023-05-10T11:55:35.939Z,652.8461
2023-05-10T11:56:37.666Z,648.7692
2023-05-10T11:57:39.564Z,649.0769
2023-05-10T11:58:40.930Z,646.3077
2023-05-10T11:59:43.331Z,644.0000
2023-05-10T12:00:44.173Z,644.9231
2023-05-10T12:01:45.903Z,649.9231
2023-05-10T12:02:47.585Z,653.4615
2023-05-10T12:03:49.226Z,653.4615